Time;durP1;ratioP1;P1;durP2;ratioP2;P2;SDS_P1;SDS_P2;PMS_P1;PMS_P2;Temp;Humidity;BMP_temperature;BMP_pressure;BME280_temperature;BME280_humidity;BME280_pressure;Samples;Min_cycle;Max_cycle;Signal;HPM_P1;HPM_P2
2022/05/20 00:00:36;;;;;;;4.22;1.42;;;;;;;13.81;50.74;100752.69;3115620;28;20049;-71
2022/05/20 00:02:08;;;;;;;3.28;1.50;;;;;;;13.66;50.63;100743.75;3116692;28;20527;-68
2022/05/20 00:03:40;;;;;;;7.80;1.85;;;;;;;13.72;50.59;100755.72;3116503;28;20095;-71
2022/05/20 00:05:13;;;;;;;5.13;2.08;;;;;;;13.68;50.65;100752.38;3116592;28;20546;-72
2022/05/20 00:06:45;;;;;;;8.38;2.67;;;;;;;13.29;50.59;100695.59;3116309;28;20593;-71
2022/05/20 00:08:17;;;;;;;6.88;1.52;;;;;;;13.62;50.78;100752.66;3116395;28;20063;-71
2022/05/20 00:09:49;;;;;;;5.78;2.28;;;;;;;13.60;50.78;100744.84;3116424;28;20522;-71
2022/05/20 00:11:23;;;;;;;5.00;1.88;;;;;;;13.54;50.83;100747.72;3116383;28;20088;-71
2022/05/20 00:12:54;;;;;;;;;;;;;;;13.50;51.13;100740.09;3116881;28;20053;-72
2022/05/20 00:14:26;;;;;;;5.65;2.05;;;;;;;13.48;50.94;100745.38;3116553;28;20740;-72
2022/05/20 00:15:59;;;;;;;2.80;1.70;;;;;;;13.51;50.81;100739.16;3116267;28;20103;-69
2022/05/20 00:17:31;;;;;;;4.15;1.98;;;;;;;13.42;50.96;100722.94;3116381;28;20156;-69
2022/05/20 00:19:04;;;;;;;3.05;1.85;;;;;;;13.53;50.94;100740.81;3115939;28;20053;-70
2022/05/20 00:20:36;;;;;;;3.45;2.20;;;;;;;13.52;50.77;100736.50;3116731;28;20360;-71
2022/05/20 00:22:08;;;;;;;4.20;2.08;;;;;;;13.53;50.89;100738.19;3116301;28;20057;-69
2022/05/20 00:23:40;;;;;;;6.05;2.13;;;;;;;13.48;51.15;100734.06;3116285;28;20053;-71
2022/05/20 00:27:07;;;;;;;2.90;1.70;;;;;;;13.51;50.88;100745.25;3106974;28;20056;-70
2022/05/20 00:28:39;;;;;;;;;;;;;;;13.31;51.04;100712.09;3116534;28;20068;-70
2022/05/20 00:30:11;;;;;;;3.38;1.95;;;;;;;13.47;51.10;100742.84;3116170;28;20418;-70
2022/05/20 00:31:43;;;;;;;8.77;2.13;;;;;;;13.42;51.05;100728.16;3115926;28;20102;-70
2022/05/20 00:33:15;;;;;;;3.45;1.85;;;;;;;13.45;51.27;100744.66;3116269;28;20592;-70
2022/05/20 00:34:46;;;;;;;7.03;2.10;;;;;;;13.43;51.49;100742.97;3116197;28;20461;-70
2022/05/20 00:36:19;;;;;;;5.88;2.08;;;;;;;13.09;51.53;100690.31;3116041;28;20085;-70
2022/05/20 00:37:51;;;;;;;5.03;1.90;;;;;;;13.43;51.61;100745.59;3113448;28;20061;-70
2022/05/20 00:39:24;;;;;;;2.47;1.67;;;;;;;13.41;51.67;100744.78;3115237;28;20107;-68
2022/05/20 00:40:57;;;;;;;10.25;3.05;;;;;;;13.40;51.90;100747.47;3115951;28;20312;-68
2022/05/20 00:42:31;;;;;;;6.43;1.92;;;;;;;13.36;51.94;100730.19;3116188;28;20421;-69
2022/05/20 00:44:03;;;;;;;4.80;2.30;;;;;;;13.41;51.70;100739.56;3116040;28;20443;-69
2022/05/20 00:45:35;;;;;;;4.80;2.30;;;;;;;13.45;51.75;100735.03;3116249;28;20053;-68
2022/05/20 00:47:07;;;;;;;4.65;2.22;;;;;;;13.47;51.60;100737.59;3115912;28;20053;-69
2022/05/20 00:48:40;;;;;;;9.15;2.45;;;;;;;13.37;51.41;100718.84;3115691;28;20120;-69
2022/05/20 00:50:15;;;;;;;5.68;2.10;;;;;;;13.49;51.41;100735.75;3116189;28;20081;-69
2022/05/20 00:51:51;;;;;;;5.13;2.60;;;;;;;13.47;51.84;100730.59;3115806;28;20053;-69
2022/05/20 00:53:26;;;;;;;5.18;2.30;;;;;;;13.47;51.44;100734.97;3116039;28;20191;-69
2022/05/20 00:55:03;;;;;;;10.88;2.67;;;;;;;13.11;51.45;100672.81;3116120;28;20061;-69
2022/05/20 00:56:38;;;;;;;4.40;2.20;;;;;;;13.49;51.71;100730.50;3115701;28;20060;-69
2022/05/20 00:58:16;;;;;;;8.63;2.10;;;;;;;13.25;51.10;100693.13;3115808;28;20470;-69
2022/05/20 00:59:53;;;;;;;7.00;2.70;;;;;;;13.49;51.25;100733.13;3114255;28;20418;-69
2022/05/20 01:01:28;;;;;;;8.18;2.22;;;;;;;13.50;51.05;100727.84;3115899;28;20052;-69
2022/05/20 01:03:04;;;;;;;6.85;1.98;;;;;;;13.48;51.03;100726.22;3115799;28;20053;-68
2022/05/20 01:04:38;;;;;;;9.68;2.47;;;;;;;13.50;51.11;100732.25;3112454;28;20049;-69
2022/05/20 01:06:11;;;;;;;5.80;2.13;;;;;;;13.30;51.14;100707.75;3109460;28;20616;-68
2022/05/20 01:07:43;;;;;;;8.80;2.40;;;;;;;13.47;50.96;100734.97;3115784;28;20050;-69
2022/05/20 01:09:15;;;;;;;7.70;2.47;;;;;;;13.47;51.05;100730.59;3115565;28;20401;-69
2022/05/20 01:10:47;;;;;;;6.75;2.72;;;;;;;13.43;51.04;100721.19;3115790;28;20054;-69
2022/05/20 01:12:20;;;;;;;8.38;2.60;;;;;;;13.47;50.95;100733.22;3115203;28;20063;-69
2022/05/20 01:13:54;;;;;;;7.18;2.33;;;;;;;13.43;50.57;100731.66;3115637;28;20537;-69
2022/05/20 01:15:28;;;;;;;4.95;2.30;;;;;;;13.39;50.52;100724.84;3115641;28;20057;-69
2022/05/20 01:17:00;;;;;;;8.45;2.28;;;;;;;13.48;50.78;100739.28;3120178;28;20837;-69
2022/05/20 01:18:35;;;;;;;6.93;2.20;;;;;;;13.45;51.00;100740.25;3115975;28;20049;-69
2022/05/20 01:20:11;;;;;;;5.80;1.73;;;;;;;13.46;51.09;100752.47;3109271;28;20564;-69
2022/05/20 01:21:43;;;;;;;5.25;2.35;;;;;;;13.44;51.07;100743.81;3115871;28;20058;-70
2022/05/20 01:23:18;;;;;;;5.18;2.22;;;;;;;13.05;51.08;100683.53;3115539;28;20486;-70
2022/05/20 01:24:50;;;;;;;3.13;1.73;;;;;;;13.43;51.04;100740.34;3115584;28;20110;-69
2022/05/20 01:26:23;;;;;;;6.30;2.13;;;;;;;13.43;50.73;100747.34;3115761;28;20061;-69
2022/05/20 01:27:55;;;;;;;4.47;1.98;;;;;;;13.44;50.71;100749.03;3115712;28;20123;-69
2022/05/20 01:29:27;;;;;;;5.35;2.05;;;;;;;13.45;50.88;100739.41;3115677;28;20111;-70
2022/05/20 01:31:02;;;;;;;5.72;1.98;;;;;;;13.46;51.10;100747.22;3119224;28;20108;-69
2022/05/20 01:32:33;;;;;;;3.28;1.70;;;;;;;13.47;51.17;100740.22;3115440;28;20558;-68
2022/05/20 01:34:05;;;;;;;5.95;1.95;;;;;;;13.46;51.06;100744.59;3115664;28;20114;-68
2022/05/20 01:35:41;;;;;;;4.60;1.90;;;;;;;13.46;51.11;100751.56;3115769;28;20057;-68
2022/05/20 01:37:13;;;;;;;4.25;2.25;;;;;;;13.45;50.75;100742.03;3115146;28;20054;-68
2022/05/20 01:38:47;;;;;;;5.38;2.00;;;;;;;13.37;50.79;100732.75;3115767;28;20060;-69
2022/05/20 01:40:18;;;;;;;4.93;1.85;;;;;;;13.40;50.79;100748.31;3115312;28;21009;-68
2022/05/20 01:41:54;;;;;;;3.75;1.90;;;;;;;13.42;51.03;100749.09;3115339;28;20049;-70
2022/05/20 01:43:46;;;;;;;4.75;2.10;;;;;;;13.35;51.21;100739.81;3116679;28;20103;-70
2022/05/20 01:45:24;;;;;;;7.10;2.15;;;;;;;13.31;51.03;100726.91;3113359;28;20382;-71
2022/05/20 01:47:01;;;;;;;6.28;1.85;;;;;;;13.38;51.28;100744.91;3115597;28;20064;-70
2022/05/20 01:48:40;;;;;;;3.50;1.58;;;;;;;13.42;51.17;100753.47;3115601;28;20061;-70
2022/05/20 01:50:18;;;;;;;3.40;2.03;;;;;;;13.40;51.18;100753.56;3115348;28;20053;-70
2022/05/20 01:51:52;;;;;;;3.90;1.65;;;;;;;13.37;51.09;100750.22;3115150;28;20049;-69
2022/05/20 01:53:32;;;;;;;5.55;1.67;;;;;;;13.39;51.15;100756.22;3115688;28;20140;-69
2022/05/20 01:55:12;;;;;;;4.38;1.67;;;;;;;13.31;51.16;100748.72;3115263;28;20057;-70
2022/05/20 01:56:50;;;;;;;5.30;1.40;;;;;;;13.25;51.22;100741.13;3115433;28;20513;-70
2022/05/20 01:58:26;;;;;;;1.90;1.30;;;;;;;13.35;51.30;100760.75;3115626;28;20136;-70
2022/05/20 02:00:08;;;;;;;5.93;1.52;;;;;;;13.33;50.92;100756.47;3112053;28;20060;-70
2022/05/20 02:01:47;;;;;;;4.65;1.65;;;;;;;13.30;50.82;100767.06;3115126;28;20075;-68
2022/05/20 02:03:25;;;;;;;3.80;1.40;;;;;;;13.29;51.07;100770.63;3115357;28;20057;-69
2022/05/20 02:05:03;;;;;;;2.47;1.30;;;;;;;13.27;50.70;100768.03;3115129;28;20482;-68
2022/05/20 02:06:38;;;;;;;5.15;1.48;;;;;;;13.26;50.87;100766.34;3115380;28;20045;-69
2022/05/20 02:08:17;;;;;;;5.78;1.30;;;;;;;13.19;51.06;100759.63;3115285;28;20063;-69
2022/05/20 02:09:55;;;;;;;3.45;1.40;;;;;;;12.82;50.94;100710.59;3115178;28;20144;-69
2022/05/20 02:11:34;;;;;;;2.28;1.33;;;;;;;13.09;50.57;100756.53;3115352;28;20577;-69
2022/05/20 02:13:08;;;;;;;3.28;1.02;;;;;;;12.80;50.79;100722.84;3115140;28;20049;-71
2022/05/20 02:14:44;;;;;;;2.88;1.23;;;;;;;12.50;50.74;100700.47;3115233;28;20470;-69
2022/05/20 02:16:21;;;;;;;4.32;1.60;;;;;;;12.83;50.75;100757.56;3115322;28;20571;-71
2022/05/20 02:17:58;;;;;;;2.45;1.38;;;;;;;12.74;51.29;100761.38;3115275;28;20136;-70
2022/05/20 02:19:33;;;;;;;2.45;1.10;;;;;;;12.67;51.59;100757.31;3114886;28;20057;-70
2022/05/20 02:21:11;;;;;;;4.47;1.40;;;;;;;12.53;51.20;100760.44;3115217;28;20515;-71
2022/05/20 02:22:47;;;;;;;2.08;1.13;;;;;;;12.41;51.50;100755.69;3115219;28;20461;-70
2022/05/20 02:24:23;;;;;;;3.92;1.50;;;;;;;12.37;51.96;100756.72;3114695;28;20069;-69
2022/05/20 02:26:01;;;;;;;2.08;1.20;;;;;;;12.29;52.14;100761.38;3109146;28;20092;-68
2022/05/20 02:27:40;;;;;;;4.20;2.10;;;;;;;12.25;52.44;100754.56;3114993;28;20057;-68
2022/05/20 02:29:17;;;;;;;6.90;1.67;;;;;;;12.16;52.54;100749.69;3115343;28;20107;-69
2022/05/20 02:30:50;;;;;;;3.55;1.30;;;;;;;12.11;52.60;100755.06;3108874;28;20824;-69
2022/05/20 02:32:29;;;;;;;10.50;1.58;;;;;;;12.12;52.82;100761.13;3115037;28;20127;-69
2022/05/20 02:34:01;;;;;;;4.35;1.63;;;;;;;12.04;53.32;100751.84;3115176;28;20057;-69
2022/05/20 02:35:34;;;;;;;3.95;1.85;;;;;;;12.06;53.18;100757.81;3115072;28;20061;-70
2022/05/20 02:37:23;;;;;;;5.30;1.60;;;;;;;11.61;53.35;100685.47;3112210;28;20060;-69
2022/05/20 02:38:56;;;;;;;8.20;1.73;;;;;;;12.00;53.41;100755.44;3114881;28;20056;-69
2022/05/20 02:40:28;;;;;;;13.10;1.48;;;;;;;12.02;53.20;100763.22;3115262;28;20485;-69
2022/05/20 02:42:00;;;;;;;2.55;1.33;;;;;;;12.01;53.42;100756.31;3115049;28;20061;-68
2022/05/20 02:43:34;;;;;;;4.70;1.40;;;;;;;11.93;53.71;100747.91;3115100;28;20064;-68
2022/05/20 02:45:07;;;;;;;5.63;1.50;;;;;;;11.85;53.53;100748.16;3115044;28;20110;-68
2022/05/20 02:46:39;;;;;;;;;;;;;;;11.86;53.65;100756.84;3115317;28;20297;-68
2022/05/20 02:48:13;;;;;;;4.97;1.70;;;;;;;11.82;54.02;100763.91;3115304;28;19995;-68
2022/05/20 02:49:45;;;;;;;2.78;1.65;;;;;;;11.76;53.93;100761.50;3109180;28;20063;-68
2022/05/20 02:51:17;;;;;;;5.65;1.50;;;;;;;11.73;54.08;100762.47;3115219;28;20148;-68
2022/05/20 02:52:49;;;;;;;4.32;1.35;;;;;;;11.69;54.29;100758.25;3115192;28;20049;-68
2022/05/20 02:54:21;;;;;;;5.10;1.70;;;;;;;11.70;54.14;100765.16;3115165;28;20151;-70
2022/05/20 02:55:53;;;;;;;5.90;1.65;;;;;;;11.68;54.29;100766.97;3115207;28;20554;-69
2022/05/20 02:57:25;;;;;;;4.35;1.65;;;;;;;11.69;54.21;100762.63;3115411;28;20111;-69
2022/05/20 03:04:29;;;;;;;2.70;1.27;;;;;;;11.78;54.22;100751.88;3117342;28;20076;-68
2022/05/20 03:06:01;;;;;;;7.80;1.67;;;;;;;11.79;54.14;100740.50;3117059;28;20107;-70
2022/05/20 03:07:33;;;;;;;3.25;1.50;;;;;;;11.79;54.49;100749.19;3117155;28;20101;-68
2022/05/20 03:09:06;;;;;;;2.88;1.65;;;;;;;11.81;54.19;100744.78;3116889;28;20161;-68
2022/05/20 03:10:38;;;;;;;7.75;1.63;;;;;;;11.83;54.25;100747.31;3117244;28;20092;-68
2022/05/20 03:12:13;;;;;;;4.85;1.90;;;;;;;11.79;54.23;100737.91;3117281;28;20050;-70
2022/05/20 03:13:45;;;;;;;8.98;1.48;;;;;;;11.90;54.16;100748.84;3117097;28;20060;-69
2022/05/20 03:15:20;;;;;;;4.05;1.23;;;;;;;11.88;54.12;100740.22;3117557;28;20115;-70
2022/05/20 03:16:52;;;;;;;2.92;1.20;;;;;;;11.97;53.76;100744.25;3117378;28;20511;-70
2022/05/20 03:18:24;;;;;;;4.72;1.77;;;;;;;11.79;53.96;100701.38;3116999;28;20492;-70
2022/05/20 03:19:56;;;;;;;5.18;1.63;;;;;;;11.97;53.77;100729.44;3117524;28;20068;-70
2022/05/20 03:21:28;;;;;;;4.80;1.50;;;;;;;12.05;53.57;100748.31;3116901;28;20592;-71
2022/05/20 03:23:02;;;;;;;2.55;1.35;;;;;;;12.09;53.55;100750.81;3121654;28;20048;-71
2022/05/20 03:24:34;;;;;;;9.90;1.60;;;;;;;12.03;53.83;100737.06;3117530;28;20064;-70
2022/05/20 03:26:06;;;;;;;5.18;2.08;;;;;;;12.14;53.51;100748.88;3116983;28;20567;-70
2022/05/20 03:27:38;;;;;;;3.75;1.30;;;;;;;12.17;53.64;100751.38;3117420;28;20050;-70
2022/05/20 03:29:10;;;;;;;6.82;1.42;;;;;;;12.17;53.93;100748.78;3117318;28;20173;-70
2022/05/20 03:30:44;;;;;;;7.80;1.88;;;;;;;12.20;53.89;100746.91;3116830;28;20057;-70
2022/05/20 03:32:16;;;;;;;11.18;1.88;;;;;;;12.24;53.64;100753.69;3117021;28;20260;-70
2022/05/20 03:33:48;;;;;;;4.18;1.88;;;;;;;12.22;53.57;100752.91;3110653;28;20053;-71
2022/05/20 03:35:20;;;;;;;6.15;1.52;;;;;;;12.24;53.72;100755.47;3117234;28;20049;-70
2022/05/20 03:36:52;;;;;;;3.30;1.63;;;;;;;12.21;53.62;100750.34;3121018;28;20645;-70
2022/05/20 03:38:24;;;;;;;5.00;1.70;;;;;;;12.23;53.55;100761.59;3121611;28;20053;-70
2022/05/20 03:39:56;;;;;;;10.10;1.83;;;;;;;11.80;53.49;100690.03;3122553;28;20053;-70
2022/05/20 03:41:28;;;;;;;6.95;1.75;;;;;;;12.20;53.77;100762.56;3115874;28;20056;-70
2022/05/20 03:43:02;;;;;;;10.07;1.92;;;;;;;12.20;53.75;100762.56;3122085;28;20049;-70
2022/05/20 03:44:34;;;;;;;3.90;1.48;;;;;;;12.23;53.36;100764.22;3122252;28;20562;-71
2022/05/20 03:46:09;;;;;;;5.30;1.63;;;;;;;12.27;53.37;100766.66;3122533;28;20064;-71
2022/05/20 03:47:41;;;;;;;4.18;1.48;;;;;;;12.27;53.75;100764.06;3122430;28;20103;-70
2022/05/20 03:49:12;;;;;;;4.60;1.60;;;;;;;12.31;53.48;100763.94;3121984;28;20050;-71
2022/05/20 03:50:44;;;;;;;8.45;1.90;;;;;;;12.33;53.56;100770.78;3124641;28;20655;-71
2022/05/20 03:52:16;;;;;;;4.22;1.73;;;;;;;12.32;53.62;100771.72;3122260;28;20042;-70
2022/05/20 03:53:48;;;;;;;3.30;1.40;;;;;;;12.32;53.45;100769.09;3115505;28;20057;-70
2022/05/20 03:55:21;;;;;;;2.50;1.00;;;;;;;12.34;53.52;100762.06;3122059;28;20478;-70
2022/05/20 03:56:53;;;;;;;6.38;1.48;;;;;;;12.31;53.57;100759.56;3122049;28;20061;-70
2022/05/20 03:58:24;;;;;;;6.03;1.48;;;;;;;12.35;53.62;100771.59;3122035;28;20084;-70
2022/05/20 03:59:56;;;;;;;5.20;1.75;;;;;;;12.36;53.42;100773.28;3121650;28;20046;-70
2022/05/20 04:03:19;;;;;;;9.43;1.50;;;;;;;12.37;53.45;100761.94;3121750;28;20073;-69
2022/05/20 04:04:53;;;;;;;6.93;1.88;;;;;;;12.38;53.47;100773.25;3120637;28;20529;-69
2022/05/20 04:06:24;;;;;;;7.60;1.95;;;;;;;12.39;53.74;100773.16;3120851;28;20045;-69
2022/05/20 04:07:56;;;;;;;4.40;1.70;;;;;;;12.27;53.95;100744.91;3121548;28;20050;-69
2022/05/20 04:09:28;;;;;;;6.60;2.17;;;;;;;12.39;53.75;100769.72;3121697;28;20061;-69
2022/05/20 04:11:00;;;;;;;3.05;1.20;;;;;;;12.39;53.88;100767.94;3121846;28;20486;-71
2022/05/20 04:12:34;;;;;;;6.60;2.00;;;;;;;12.40;53.83;100764.44;3121317;28;20057;-68
2022/05/20 04:14:07;;;;;;;9.30;1.83;;;;;;;12.40;53.80;100761.00;3120838;28;20053;-69
2022/05/20 04:15:38;;;;;;;9.63;1.80;;;;;;;12.47;53.77;100776.34;3121290;28;20144;-69
2022/05/20 04:17:12;;;;;;;6.10;2.13;;;;;;;12.45;53.69;100766.88;3121669;28;20045;-69
2022/05/20 04:18:44;;;;;;;5.30;1.90;;;;;;;12.10;53.80;100709.00;3123049;28;20505;-69
2022/05/20 04:20:16;;;;;;;3.63;1.73;;;;;;;12.57;53.81;100778.63;3121421;28;20526;-69
2022/05/20 04:21:48;;;;;;;6.38;1.75;;;;;;;12.56;53.65;100771.69;3121805;28;20108;-71
2022/05/20 04:23:20;;;;;;;4.25;1.95;;;;;;;12.63;54.12;100786.22;3121666;28;20443;-70
2022/05/20 04:24:52;;;;;;;8.00;2.30;;;;;;;12.65;53.80;100774.81;3121602;28;20478;-70
2022/05/20 04:26:24;;;;;;;20.80;2.05;;;;;;;12.68;53.69;100776.47;3121661;28;20447;-71
2022/05/20 04:27:56;;;;;;;9.15;2.20;;;;;;;12.72;53.65;100773.69;3121952;28;20050;-71
2022/05/20 04:29:28;;;;;;;9.05;1.77;;;;;;;12.75;53.76;100780.56;3118106;28;20049;-72
2022/05/20 04:31:04;;;;;;;4.55;1.98;;;;;;;12.73;53.34;100771.91;3121564;28;20049;-72
2022/05/20 04:32:37;;;;;;;4.03;1.88;;;;;;;12.77;53.64;100780.47;3121928;28;20041;-72
2022/05/20 04:34:09;;;;;;;11.05;2.22;;;;;;;12.74;53.21;100774.44;3121570;28;20049;-71
2022/05/20 04:35:41;;;;;;;4.95;1.63;;;;;;;12.73;52.64;100769.31;3121708;28;20053;-71
2022/05/20 04:37:14;;;;;;;9.45;2.55;;;;;;;12.81;52.67;100782.94;3121337;28;20050;-71
2022/05/20 04:38:46;;;;;;;8.40;2.00;;;;;;;12.83;52.80;100775.88;3121237;28;20135;-70
2022/05/20 04:40:18;;;;;;;4.88;1.67;;;;;;;12.84;52.26;100782.81;3121477;28;20316;-73
2022/05/20 04:47:34;;;;;;;9.48;1.65;;;;;;;12.93;51.80;100790.28;3095561;28;20053;-71
2022/05/20 04:49:08;;;;;;;5.90;1.38;;;;;;;12.93;51.47;100792.06;3095369;28;20066;-72
2022/05/20 04:50:40;;;;;;;4.80;1.48;;;;;;;12.96;51.63;100790.16;3095325;28;20141;-70
2022/05/20 04:52:12;;;;;;;5.80;1.65;;;;;;;12.98;51.19;100784.88;3095523;28;20065;-70
2022/05/20 04:55:34;;;;;;;3.72;1.40;;;;;;;13.04;51.44;100781.16;3115675;28;20407;-70
2022/05/20 04:57:06;;;;;;;4.93;1.65;;;;;;;13.12;51.04;100798.25;3114805;28;20419;-70
2022/05/20 04:58:39;;;;;;;5.40;1.70;;;;;;;13.03;51.26;100763.78;3123563;28;20052;-69
2022/05/20 05:00:14;;;;;;;7.32;1.60;;;;;;;13.23;51.35;100792.59;3126929;28;20080;-70
2022/05/20 05:01:45;;;;;;;9.60;1.80;;;;;;;13.31;51.17;100787.94;3121132;28;20080;-69
2022/05/20 05:03:18;;;;;;;3.65;1.80;;;;;;;13.34;51.19;100797.41;3121332;28;20123;-69
2022/05/20 05:04:51;;;;;;;7.93;2.05;;;;;;;13.41;51.26;100796.28;3117791;28;20580;-68
2022/05/20 05:06:24;;;;;;;10.88;2.30;;;;;;;13.50;51.27;100797.66;3120874;28;20419;-69
2022/05/20 05:07:57;;;;;;;8.85;2.63;;;;;;;13.56;51.27;100806.09;3120874;28;20084;-69
2022/05/20 05:09:28;;;;;;;;;;;;;;;13.62;51.03;100799.75;3121273;28;20112;-68
2022/05/20 05:10:59;;;;;;;8.88;2.08;;;;;;;13.68;51.27;100799.50;3124580;28;20015;-69
2022/05/20 05:12:32;;;;;;;11.65;2.05;;;;;;;13.70;51.27;100796.84;3123934;28;20493;-69
2022/05/20 05:14:03;;;;;;;4.75;1.90;;;;;;;13.59;51.11;100771.09;3122960;28;20099;-72
2022/05/20 05:15:35;;;;;;;5.25;2.25;;;;;;;13.87;51.05;100799.56;3121203;28;20057;-72
2022/05/20 05:17:12;;;;;;;6.82;2.00;;;;;;;13.95;50.75;100800.09;3119049;28;21232;-71
2022/05/20 05:18:43;;;;;;;5.88;1.98;;;;;;;13.83;50.61;100769.19;3120072;28;20045;-72
2022/05/20 05:20:20;;;;;;;7.10;2.28;;;;;;;14.05;50.52;100797.91;3120918;28;20056;-72
2022/05/20 05:21:53;;;;;;;8.05;1.90;;;;;;;14.04;50.40;100788.38;3125653;28;20080;-76
2022/05/20 05:23:26;;;;;;;4.35;1.98;;;;;;;14.15;50.47;100803.63;3114593;28;20095;-75
2022/05/20 05:24:58;;;;;;;4.90;1.85;;;;;;;14.15;50.14;100790.53;3120489;28;20091;-74
2022/05/20 05:26:31;;;;;;;5.40;1.88;;;;;;;14.23;49.96;100797.13;3127470;28;20056;-78
2022/05/20 05:28:04;;;;;;;11.73;1.98;;;;;;;14.18;49.99;100780.75;3129544;28;20064;-72
2022/05/20 05:29:39;;;;;;;6.70;2.08;;;;;;;14.01;49.98;100755.28;3123865;28;20053;-76
2022/05/20 05:31:16;;;;;;;12.27;2.30;;;;;;;13.79;49.47;100708.28;3120025;28;20041;-77
2022/05/20 05:32:48;;;;;;;7.30;1.90;;;;;;;14.45;49.61;100804.84;3120724;28;20108;-74
2022/05/20 05:34:21;;;;;;;6.00;1.88;;;;;;;14.50;49.89;100802.03;3120451;28;20144;-73
2022/05/20 05:35:56;;;;;;;5.80;1.77;;;;;;;14.33;49.82;100773.97;3120868;28;20053;-76
2022/05/20 05:37:28;;;;;;;9.52;1.88;;;;;;;14.62;49.83;100803.28;3120964;28;20081;-76
2022/05/20 05:39:00;;;;;;;15.82;2.80;;;;;;;14.68;49.77;100798.59;3113879;28;20073;-75
2022/05/20 05:40:34;;;;;;;11.00;2.35;;;;;;;14.70;49.58;100799.41;3120898;28;20053;-75
2022/05/20 05:42:06;;;;;;;9.02;1.90;;;;;;;14.68;49.66;100792.53;3120636;28;20136;-76
2022/05/20 05:43:39;;;;;;;11.90;2.42;;;;;;;14.74;49.59;100784.38;3120565;28;20104;-73
2022/05/20 05:45:13;;;;;;;10.82;1.90;;;;;;;14.86;49.56;100796.91;3120335;28;20443;-75
2022/05/20 05:46:45;;;;;;;17.42;2.40;;;;;;;14.83;49.43;100775.22;3120341;28;20053;-72
2022/05/20 05:48:17;;;;;;;11.50;2.67;;;;;;;14.82;49.11;100763.88;3120946;28;20059;-73
2022/05/20 05:49:49;;;;;;;7.40;2.22;;;;;;;15.08;49.15;100790.63;3120603;28;20500;-72
2022/05/20 05:51:22;;;;;;;12.63;2.30;;;;;;;15.22;49.07;100796.06;3113967;28;20121;-71
2022/05/20 05:52:59;;;;;;;6.85;2.53;;;;;;;15.27;48.96;100790.59;3120828;28;20141;-70
2022/05/20 05:54:32;;;;;;;8.13;2.38;;;;;;;15.38;49.35;100804.03;3120638;28;20132;-69
2022/05/20 05:56:06;;;;;;;6.97;2.00;;;;;;;15.47;48.98;100799.19;3120756;28;20053;-72
2022/05/20 05:57:37;;;;;;;13.05;2.63;;;;;;;15.57;49.30;100802.19;3120974;28;20133;-71
2022/05/20 05:59:09;;;;;;;6.65;2.28;;;;;;;15.58;49.22;100785.50;3120387;28;20087;-76
2022/05/20 06:00:42;;;;;;;16.63;2.13;;;;;;;15.73;48.82;100802.31;3124807;28;20045;-72
2022/05/20 06:02:14;;;;;;;11.43;4.68;;;;;;;15.78;48.65;100786.31;3121516;28;20046;-72
2022/05/20 06:03:46;;;;;;;11.82;2.90;;;;;;;15.81;48.89;100770.41;3127035;28;20111;-77
2022/05/20 06:05:18;;;;;;;8.95;2.75;;;;;;;15.99;48.55;100785.22;3126270;28;20110;-78
2022/05/20 06:06:52;;;;;;;8.40;3.20;;;;;;;16.14;48.38;100787.03;3126994;28;20124;-72
2022/05/20 06:08:24;;;;;;;;;;;;;;;16.22;48.20;100780.53;3120607;28;20057;-71
2022/05/20 06:09:56;;;;;;;11.88;2.70;;;;;;;16.29;48.38;100779.28;3120667;28;19921;-70
2022/05/20 06:11:28;;;;;;;7.35;2.15;;;;;;;16.35;47.71;100781.56;3120255;28;20058;-64
2022/05/20 06:13:00;;;;;;;11.55;2.20;;;;;;;16.41;47.77;100786.50;3120413;28;20053;-68
2022/05/20 06:14:32;;;;;;;6.30;2.28;;;;;;;16.45;47.62;100774.06;3120366;28;20115;-71
2022/05/20 06:16:04;;;;;;;10.32;2.60;;;;;;;16.54;47.24;100782.28;3120414;28;20482;-67
2022/05/20 06:17:36;;;;;;;8.23;2.15;;;;;;;16.63;47.31;100780.94;3115914;28;20065;-69
2022/05/20 06:19:09;;;;;;;12.07;2.90;;;;;;;16.70;47.20;100773.56;3109047;28;20068;-68
2022/05/20 06:20:40;;;;;;;6.45;2.33;;;;;;;16.80;46.83;100785.28;3115163;28;20085;-68
2022/05/20 06:22:14;;;;;;;5.05;2.22;;;;;;;16.85;47.02;100783.25;3115342;28;20545;-69
2022/05/20 06:23:46;;;;;;;11.20;2.92;;;;;;;16.95;47.01;100787.09;3115135;28;20054;-68
2022/05/20 06:25:18;;;;;;;11.80;2.70;;;;;;;17.03;46.79;100789.25;3115135;28;20518;-68
2022/05/20 06:26:50;;;;;;;8.75;2.78;;;;;;;17.08;46.91;100775.88;3115115;28;20061;-67
2022/05/20 06:28:22;;;;;;;9.40;2.47;;;;;;;17.03;46.75;100757.69;3115098;28;20521;-71
2022/05/20 06:29:54;;;;;;;12.57;2.53;;;;;;;17.26;46.93;100783.53;3115120;28;20631;-70
2022/05/20 06:31:26;;;;;;;12.82;5.25;;;;;;;17.36;46.75;100789.16;3115184;28;20054;-69
2022/05/20 06:32:58;;;;;;;10.10;2.00;;;;;;;17.44;46.63;100786.91;3114717;28;20049;-68
2022/05/20 06:39:48;;;;;;;7.05;2.80;;;;;;;17.32;46.64;100752.53;3115327;28;20515;-70
2022/05/20 06:40:02;;;;;;;6.13;1.92;;;;;;;17.79;45.18;100780.53;3123112;28;20049;-71
2022/05/20 06:41:34;;;;;;;7.95;1.70;;;;;;;17.84;44.90;100781.97;3123089;28;20598;-71
2022/05/20 06:43:06;;;;;;;18.67;2.38;;;;;;;17.86;44.43;100777.44;3117941;28;20057;-71
2022/05/20 06:44:37;;;;;;;6.60;2.50;;;;;;;17.93;44.64;100770.88;3117617;28;20558;-72
2022/05/20 06:46:10;;;;;;;10.10;1.98;;;;;;;17.93;44.35;100751.56;3117442;28;20123;-70
2022/05/20 06:47:42;;;;;;;9.13;2.22;;;;;;;18.12;44.33;100764.47;3117969;28;20131;-69
2022/05/20 06:49:14;;;;;;;8.45;2.30;;;;;;;18.05;44.43;100747.34;3118128;28;20152;-70
2022/05/20 06:50:46;;;;;;;7.00;2.10;;;;;;;18.25;43.85;100754.88;3120105;28;20053;-71
2022/05/20 06:52:21;;;;;;;7.43;2.38;;;;;;;18.40;43.88;100767.09;3120422;28;20478;-70
2022/05/20 06:53:55;;;;;;;9.73;2.25;;;;;;;18.46;43.30;100755.31;3126417;28;20632;-68
2022/05/20 06:55:27;;;;;;;7.82;2.20;;;;;;;18.55;43.05;100751.25;3117020;28;20140;-71
2022/05/20 06:56:59;;;;;;;4.68;1.77;;;;;;;18.57;43.17;100729.09;3120404;28;20048;-70
2022/05/20 06:58:31;;;;;;;4.57;2.10;;;;;;;18.84;42.67;100763.47;3117362;28;20107;-70
2022/05/20 07:00:10;;;;;;;5.70;1.83;;;;;;;18.71;42.71;100727.38;3119487;28;20517;-75
2022/05/20 07:01:41;;;;;;;6.45;2.05;;;;;;;19.05;42.66;100766.50;3126554;28;20061;-72
2022/05/20 07:03:13;;;;;;;5.22;1.95;;;;;;;19.05;41.84;100761.25;3120459;28;20060;-70
2022/05/20 07:04:45;;;;;;;4.30;2.00;;;;;;;19.24;41.08;100771.44;3121801;28;20049;-75
2022/05/20 07:06:18;;;;;;;6.40;2.03;;;;;;;19.11;40.92;100730.94;3122750;28;20301;-73
2022/05/20 07:07:50;;;;;;;4.15;1.88;;;;;;;19.44;40.77;100766.63;3117454;28;20049;-70
2022/05/20 07:09:23;;;;;;;4.78;1.65;;;;;;;19.55;40.86;100769.38;3117385;28;20507;-72
2022/05/20 07:10:56;;;;;;;7.68;1.95;;;;;;;19.50;39.57;100739.81;3117308;28;20080;-72
2022/05/20 07:12:28;;;;;;;14.43;1.85;;;;;;;19.74;39.19;100764.59;3117123;28;20420;-70
2022/05/20 07:13:59;;;;;;;6.50;1.70;;;;;;;19.85;39.33;100763.84;3117017;28;20442;-72
2022/05/20 07:15:31;;;;;;;9.57;1.40;;;;;;;19.86;39.34;100746.19;3121942;28;20049;-70
2022/05/20 07:17:03;;;;;;;7.68;1.58;;;;;;;20.00;38.95;100746.94;3117080;28;20065;-70
2022/05/20 07:18:35;;;;;;;12.75;1.80;;;;;;;20.17;38.61;100755.47;3114577;28;20123;-70
2022/05/20 07:20:10;;;;;;;3.35;1.60;;;;;;;20.27;38.42;100745.09;3117455;28;20088;-68
2022/05/20 07:21:42;;;;;;;10.70;1.70;;;;;;;20.16;38.24;100716.75;3117509;28;20057;-70
2022/05/20 07:23:16;;;;;;;6.28;1.70;;;;;;;20.47;37.74;100749.84;3117234;28;20053;-69
2022/05/20 07:24:49;;;;;;;4.78;1.35;;;;;;;20.58;38.06;100747.28;3117344;28;20107;-69
2022/05/20 07:26:21;;;;;;;3.78;1.67;;;;;;;20.70;37.64;100750.00;3117477;28;20053;-69
2022/05/20 07:27:57;;;;;;;4.13;1.30;;;;;;;20.81;37.89;100752.72;3115214;28;20068;-70
2022/05/20 07:29:29;;;;;;;3.53;1.15;;;;;;;20.91;37.73;100745.78;3115352;28;20041;-70
2022/05/20 07:31:02;;;;;;;4.80;1.52;;;;;;;20.86;37.41;100724.09;3116867;28;20122;-70
2022/05/20 07:32:34;;;;;;;2.75;1.20;;;;;;;21.13;36.96;100751.19;3111425;28;20880;-70
2022/05/20 07:34:06;;;;;;;5.53;1.13;;;;;;;21.06;36.78;100722.59;3116886;28;20045;-74